Time;durP1;ratioP1;P1;durP2;ratioP2;P2;SDS_P1;SDS_P2;PMS_P1;PMS_P2;Temp;Humidity;BMP_temperature;BMP_pressure;BME280_temperature;BME280_humidity;BME280_pressure;Samples;Min_cycle;Max_cycle;Signal;HPM_P1;HPM_P2
2021/04/21 00:02:17;;;;;;;1.85;1.35;;;17.20;41.50;;;;;;6220545;28;20031;-77
2021/04/21 00:05:20;;;;;;;2.63;1.55;;;17.20;41.50;;;;;;6182245;28;20127;-77
2021/04/21 00:08:23;;;;;;;3.20;1.73;;;17.20;41.70;;;;;;6184789;28;20500;-77
2021/04/21 00:11:25;;;;;;;5.10;1.60;;;17.20;41.70;;;;;;6191373;28;20475;-78
2021/04/21 00:14:26;;;;;;;3.03;1.70;;;17.20;41.80;;;;;;6193448;28;20030;-78
2021/04/21 00:17:28;;;;;;;5.13;2.00;;;17.20;41.90;;;;;;6206943;28;20030;-77
2021/04/21 00:20:31;;;;;;;4.95;1.83;;;17.20;41.90;;;;;;6190834;28;20093;-78
2021/04/21 00:23:34;;;;;;;3.95;2.03;;;17.20;41.90;;;;;;6180621;28;20037;-77
2021/04/21 00:26:37;;;;;;;2.90;1.50;;;17.20;41.90;;;;;;6199527;28;20038;-78
2021/04/21 00:29:43;;;;;;;2.97;1.88;;;17.20;41.80;;;;;;6224309;28;20053;-77
2021/04/21 00:32:53;;;;;;;5.80;1.70;;;17.20;42.00;;;;;;6207574;28;20445;-77
2021/04/21 00:35:55;;;;;;;2.85;1.65;;;17.20;42.00;;;;;;6196242;28;20030;-78
2021/04/21 00:38:57;;;;;;;4.90;1.90;;;17.20;42.10;;;;;;6174447;28;20045;-78
2021/04/21 00:42:36;;;;;;;2.03;1.40;;;17.20;42.10;;;;;;6210581;28;20037;-79
2021/04/21 00:45:46;;;;;;;2.85;1.70;;;17.20;42.10;;;;;;6218557;28;20117;-78
2021/04/21 00:49:02;;;;;;;5.30;1.58;;;17.20;42.00;;;;;;6187501;28;20045;-78
2021/04/21 00:52:12;;;;;;;3.05;1.63;;;17.20;42.10;;;;;;6213044;28;20026;-77
2021/04/21 00:55:36;;;;;;;2.88;1.42;;;17.20;42.30;;;;;;6227352;28;20456;-77
2021/04/21 00:59:14;;;;;;;1.85;1.40;;;17.20;42.40;;;;;;6223978;28;20057;-77
2021/04/21 01:02:17;;;;;;;2.58;1.60;;;17.20;42.40;;;;;;6164895;28;20083;-77
2021/04/21 01:05:24;;;;;;;3.03;1.55;;;17.20;42.40;;;;;;6153375;28;20039;-77
2021/04/21 01:08:31;;;;;;;3.60;1.57;;;17.20;42.40;;;;;;6162039;28;20022;-77
2021/04/21 01:11:48;;;;;;;1.98;1.42;;;17.20;42.50;;;;;;6160727;28;20223;-79
2021/04/21 01:14:54;;;;;;;3.60;1.38;;;17.20;42.70;;;;;;6142782;28;20046;-78
2021/04/21 01:17:56;;;;;;;1.33;1.23;;;17.20;42.80;;;;;;6161256;28;20126;-78
2021/04/21 01:20:57;;;;;;;2.92;1.75;;;17.10;43.10;;;;;;6153975;28;20070;-78
2021/04/21 01:24:04;;;;;;;3.85;1.98;;;17.10;43.40;;;;;;6178086;28;20038;-78
2021/04/21 01:27:10;;;;;;;2.50;1.85;;;17.00;43.60;;;;;;6146069;28;20146;-78
2021/04/21 01:30:16;;;;;;;4.68;2.10;;;17.00;43.60;;;;;;6177591;28;20061;-78
2021/04/21 01:33:21;;;;;;;4.97;1.92;;;17.00;43.60;;;;;;6202188;28;20121;-78
2021/04/21 01:36:24;;;;;;;2.95;1.58;;;17.00;43.90;;;;;;6185369;28;20133;-78
2021/04/21 01:39:26;;;;;;;3.10;1.80;;;16.90;44.20;;;;;;6200409;28;20100;-77
2021/04/21 01:42:32;;;;;;;3.42;1.77;;;16.90;44.80;;;;;;6221310;28;20048;-79
2021/04/21 01:45:34;;;;;;;2.90;2.08;;;16.80;45.30;;;;;;6203395;28;20027;-78
2021/04/21 01:48:35;;;;;;;3.15;1.63;;;16.70;46.10;;;;;;6204352;28;20026;-78
2021/04/21 01:51:42;;;;;;;3.05;1.83;;;16.60;46.30;;;;;;6204308;28;20412;-78
2021/04/21 01:54:45;;;;;;;3.50;1.70;;;16.50;46.50;;;;;;6205622;28;20027;-78
2021/04/21 01:57:59;;;;;;;2.67;1.60;;;16.50;46.80;;;;;;6212174;28;20030;-78
2021/04/21 02:01:07;;;;;;;2.22;1.67;;;16.50;47.20;;;;;;6217411;28;20030;-79
2021/04/21 02:04:42;;;;;;;3.07;1.97;;;16.40;47.50;;;;;;6204087;28;20516;-78
2021/04/21 02:08:03;;;;;;;2.75;1.98;;;16.30;48.10;;;;;;6222266;28;20030;-78
2021/04/21 02:11:24;;;;;;;3.50;2.05;;;16.20;48.70;;;;;;6226613;28;20219;-78
2021/04/21 02:14:42;;;;;;;4.22;1.92;;;16.20;48.80;;;;;;6213827;28;20101;-78
2021/04/21 02:17:51;;;;;;;4.13;2.45;;;16.20;49.00;;;;;;6203160;28;20465;-78
2021/04/21 02:21:30;;;;;;;7.18;2.60;;;16.20;49.00;;;;;;6211943;28;20034;-78
2021/04/21 02:24:53;;;;;;;4.28;2.50;;;16.10;49.30;;;;;;6225949;28;20361;-79
2021/04/21 02:28:14;;;;;;;4.70;2.13;;;16.10;49.60;;;;;;6209666;28;20476;-78
2021/04/21 02:31:31;;;;;;;3.35;1.83;;;16.10;49.60;;;;;;6220564;28;20192;-78
2021/04/21 02:35:00;;;;;;;2.78;2.00;;;16.00;49.80;;;;;;6208678;28;20030;-78
2021/04/21 02:38:14;;;;;;;7.32;2.22;;;16.00;49.90;;;;;;6202253;28;20440;-78
2021/04/21 02:41:48;;;;;;;4.35;2.28;;;16.00;50.00;;;;;;6207314;28;20022;-78
2021/04/21 02:45:26;;;;;;;2.47;1.65;;;16.00;50.10;;;;;;6203031;28;20034;-78
2021/04/21 02:48:43;;;;;;;3.10;2.00;;;16.00;50.30;;;;;;6186223;28;20038;-79
2021/04/21 02:52:06;;;;;;;7.53;2.00;;;15.90;50.60;;;;;;6202518;28;20034;-79
2021/04/21 02:55:35;;;;;;;5.90;2.20;;;15.70;50.80;;;;;;6220398;28;20033;-79
2021/04/21 02:58:57;;;;;;;5.13;3.10;;;15.70;51.40;;;;;;6205661;28;20026;-77
2021/04/21 03:02:14;;;;;;;3.72;2.35;;;15.60;51.60;;;;;;6202792;28;20069;-77
2021/04/21 03:05:30;;;;;;;3.42;2.17;;;15.60;51.90;;;;;;6206432;28;20087;-78
2021/04/21 03:08:40;;;;;;;3.75;2.47;;;15.60;52.40;;;;;;6205575;28;20044;-78
2021/04/21 03:11:42;;;;;;;3.78;2.17;;;15.50;53.30;;;;;;6196304;28;20027;-77
2021/04/21 03:14:49;;;;;;;4.78;2.35;;;15.50;53.50;;;;;;6185197;28;20042;-78
2021/04/21 03:17:55;;;;;;;7.13;2.28;;;15.40;53.60;;;;;;6189615;28;20127;-77
2021/04/21 03:21:03;;;;;;;3.38;2.35;;;15.40;53.60;;;;;;6204617;28;20036;-77
2021/04/21 03:24:24;;;;;;;3.97;2.28;;;15.30;53.70;;;;;;6202256;28;20030;-78
2021/04/21 03:27:29;;;;;;;5.00;2.92;;;15.20;53.80;;;;;;6185629;28;20034;-77
2021/04/21 03:30:32;;;;;;;4.93;2.53;;;15.20;54.10;;;;;;6184923;28;20483;-77
2021/04/21 03:33:50;;;;;;;4.00;2.30;;;15.20;54.40;;;;;;6201475;28;20419;-77
2021/04/21 03:36:53;;;;;;;4.65;2.70;;;15.20;54.90;;;;;;6207973;28;20029;-77
2021/04/21 03:39:56;;;;;;;5.00;2.78;;;15.20;55.20;;;;;;6208195;28;20057;-78
2021/04/21 03:42:58;;;;;;;4.03;2.80;;;15.20;55.50;;;;;;6195291;28;20041;-77
2021/04/21 03:46:00;;;;;;;6.22;2.55;;;15.10;55.80;;;;;;6224482;28;20092;-78
2021/04/21 03:49:02;;;;;;;8.82;2.80;;;15.10;55.60;;;;;;6224544;28;20026;-77
2021/04/21 03:52:04;;;;;;;8.40;2.70;;;15.10;55.60;;;;;;6224387;28;20171;-77
2021/04/21 03:55:07;;;;;;;5.22;2.80;;;15.20;55.80;;;;;;6201352;28;20031;-77
2021/04/21 03:58:10;;;;;;;8.90;2.53;;;15.20;56.00;;;;;;6202371;28;20030;-78
2021/04/21 04:01:14;;;;;;;7.25;2.70;;;15.20;56.00;;;;;;6194577;28;20030;-77
2021/04/21 04:04:18;;;;;;;10.55;3.25;;;15.20;56.00;;;;;;6224391;28;20446;-79
2021/04/21 04:07:22;;;;;;;6.15;2.55;;;15.30;56.00;;;;;;6224087;28;20141;-78
2021/04/21 04:10:25;;;;;;;3.90;2.58;;;15.30;56.00;;;;;;6218898;28;20026;-78
2021/04/21 04:13:31;;;;;;;5.50;2.58;;;15.30;56.20;;;;;;6205988;28;20034;-78
2021/04/21 04:16:36;;;;;;;4.75;2.95;;;15.30;56.30;;;;;;6223669;28;20030;-78
2021/04/21 04:19:41;;;;;;;5.63;2.95;;;15.30;56.20;;;;;;6224635;28;20062;-78
2021/04/21 04:22:49;;;;;;;4.63;3.03;;;15.40;56.20;;;;;;6202168;28;20042;-79
2021/04/21 04:25:53;;;;;;;5.38;2.97;;;15.40;56.10;;;;;;6218272;28;20037;-79
2021/04/21 04:28:55;;;;;;;4.28;2.70;;;15.40;56.10;;;;;;6208070;28;20050;-80
2021/04/21 04:31:58;;;;;;;7.20;3.28;;;15.40;56.90;;;;;;6192557;28;20031;-77
2021/04/21 04:34:59;;;;;;;5.72;2.95;;;15.40;56.60;;;;;;6206263;28;20033;-79
2021/04/21 04:38:02;;;;;;;5.72;3.30;;;15.40;56.70;;;;;;6190095;28;20421;-78
2021/04/21 04:41:03;;;;;;;4.97;3.15;;;15.30;56.70;;;;;;6174737;28;20034;-79
2021/04/21 04:44:06;;;;;;;5.85;3.60;;;15.30;57.00;;;;;;6182430;28;20030;-79
2021/04/21 04:47:22;;;;;;;5.50;3.13;;;15.30;57.40;;;;;;6212359;28;20492;-78
2021/04/21 04:50:23;;;;;;;7.13;2.95;;;15.20;57.70;;;;;;6195623;28;20033;-78
2021/04/21 04:53:25;;;;;;;6.75;3.35;;;15.20;57.70;;;;;;6205743;28;20065;-79
2021/04/21 04:56:26;;;;;;;5.63;3.05;;;15.20;57.90;;;;;;6196805;28;20093;-78
2021/04/21 04:59:28;;;;;;;4.32;2.83;;;15.10;57.90;;;;;;6213874;28;20365;-78
2021/04/21 05:02:35;;;;;;;6.68;3.28;;;15.10;58.00;;;;;;6214290;28;20380;-78
2021/04/21 05:05:37;;;;;;;4.32;3.42;;;15.00;58.30;;;;;;6188733;28;20124;-78
2021/04/21 05:08:45;;;;;;;4.55;2.85;;;15.00;58.30;;;;;;6207301;28;20030;-79
2021/04/21 05:11:48;;;;;;;5.13;3.20;;;15.00;58.60;;;;;;6206248;28;20022;-79
2021/04/21 05:14:53;;;;;;;6.65;3.17;;;15.00;58.80;;;;;;6185648;28;20116;-77
2021/04/21 05:18:00;;;;;;;6.38;3.75;;;15.00;58.90;;;;;;6186954;28;20397;-78
2021/04/21 05:21:16;;;;;;;4.97;3.40;;;15.00;59.10;;;;;;6204947;28;20125;-77
2021/04/21 05:24:45;;;;;;;4.78;3.50;;;14.90;59.10;;;;;;6194343;28;20030;-78
2021/04/21 05:28:30;;;;;;;7.63;3.37;;;14.90;59.10;;;;;;6228137;28;20018;-78
2021/04/21 05:31:53;;;;;;;4.93;3.40;;;15.00;59.30;;;;;;6198893;28;20034;-78
2021/04/21 05:35:03;;;;;;;6.50;3.72;;;14.90;59.30;;;;;;6177584;28;20031;-78
2021/04/21 05:38:22;;;;;;;6.30;3.67;;;14.90;59.30;;;;;;6204385;28;20026;-77
2021/04/21 05:41:38;;;;;;;5.53;3.83;;;14.90;59.30;;;;;;6189696;28;20083;-78
2021/04/21 05:45:06;;;;;;;5.28;3.50;;;14.90;59.30;;;;;;6181626;28;20422;-77
2021/04/21 05:48:38;;;;;;;5.57;3.25;;;14.90;59.30;;;;;;6183998;28;20027;-77
2021/04/21 05:51:57;;;;;;;12.30;3.00;;;14.90;59.30;;;;;;6117502;29;20039;-78
2021/04/21 05:55:30;;;;;;;8.23;3.20;;;14.90;59.50;;;;;;6118691;29;20051;-78
2021/04/21 05:59:10;;;;;;;4.53;3.08;;;14.90;59.30;;;;;;6153668;29;20056;-78
2021/04/21 06:02:12;;;;;;;5.27;3.37;;;15.00;59.30;;;;;;6066049;29;20380;-77
2021/04/21 06:05:15;;;;;;;6.45;3.88;;;14.90;59.30;;;;;;6065785;29;20123;-77
2021/04/21 06:08:16;;;;;;;5.18;3.78;;;15.00;59.30;;;;;;6047065;29;20044;-77
2021/04/21 06:11:37;;;;;;;5.72;3.15;;;15.10;59.40;;;;;;6069489;29;20460;-77
2021/04/21 06:14:38;;;;;;;6.70;3.15;;;15.20;59.30;;;;;;6065715;29;20087;-77
2021/04/21 06:17:44;;;;;;;5.75;3.25;;;15.30;59.80;;;;;;6060661;29;20033;-78
2021/04/21 06:20:45;;;;;;;7.32;4.47;;;15.40;59.10;;;;;;6066052;29;20456;-78
2021/04/21 06:23:46;;;;;;;6.47;4.13;;;15.40;58.80;;;;;;6050968;29;20040;-79
2021/04/21 06:26:48;;;;;;;7.28;3.70;;;15.50;58.50;;;;;;6060955;29;20040;-78
2021/04/21 06:29:49;;;;;;;9.70;4.53;;;15.70;58.30;;;;;;6145785;28;20130;-78
2021/04/21 06:33:04;;;;;;;9.63;4.50;;;15.70;58.00;;;;;;6190970;28;20046;-79
2021/04/21 06:36:07;;;;;;;11.25;4.55;;;15.80;57.80;;;;;;6203061;28;20034;-77
2021/04/21 06:39:10;;;;;;;8.05;4.63;;;15.90;57.40;;;;;;6201998;28;20533;-78
2021/04/21 06:42:18;;;;;;;6.93;4.25;;;15.90;57.30;;;;;;6219240;28;20029;-78
2021/04/21 06:45:41;;;;;;;7.07;4.43;;;16.00;57.00;;;;;;6192370;28;20034;-77
2021/04/21 06:48:41;;;;;;;7.50;4.28;;;16.00;56.90;;;;;;6185831;28;20037;-79
2021/04/21 06:51:42;;;;;;;8.02;4.18;;;16.00;56.80;;;;;;6210565;28;20026;-78
2021/04/21 06:54:43;;;;;;;9.55;3.67;;;16.10;56.80;;;;;;6213921;28;20500;-78
2021/04/21 06:57:44;;;;;;;6.50;3.60;;;16.20;56.50;;;;;;6198241;28;20113;-78
2021/04/21 07:00:45;;;;;;;7.70;3.70;;;16.10;56.40;;;;;;6200027;28;20176;-78
2021/04/21 07:03:46;;;;;;;7.25;3.42;;;16.00;56.50;;;;;;6224672;28;20035;-77
2021/04/21 07:06:49;;;;;;;5.57;3.42;;;16.00;56.70;;;;;;6224421;28;20022;-78
2021/04/21 07:09:50;;;;;;;7.43;3.92;;;16.00;56.50;;;;;;6202573;28;20096;-77
2021/04/21 07:12:51;;;;;;;6.88;3.25;;;16.00;56.50;;;;;;6192050;28;20037;-77
2021/04/21 07:15:55;;;;;;;5.55;2.97;;;16.00;56.50;;;;;;6189777;28;20034;-78
2021/04/21 07:19:03;;;;;;;6.30;4.00;;;16.10;56.50;;;;;;6211153;28;20037;-77
2021/04/21 07:22:04;;;;;;;5.78;3.55;;;16.20;56.50;;;;;;6208099;28;20041;-78
2021/04/21 07:25:09;;;;;;;11.93;2.95;;;16.20;56.20;;;;;;6200842;28;20045;-78
2021/04/21 07:28:13;;;;;;;21.08;4.07;;;16.20;55.70;;;;;;6184584;28;20026;-77
2021/04/21 07:31:17;;;;;;;13.93;3.45;;;16.30;55.60;;;;;;6207085;28;20026;-78
2021/04/21 07:34:33;;;;;;;4.75;2.95;;;16.30;55.30;;;;;;6191841;28;20033;-78
2021/04/21 07:37:43;;;;;;;4.97;3.45;;;16.40;55.10;;;;;;6207700;28;20026;-78
2021/04/21 07:40:50;;;;;;;6.43;3.55;;;16.50;54.80;;;;;;6207915;28;20064;-78
2021/04/21 07:43:51;;;;;;;12.88;4.03;;;16.60;54.80;;;;;;6209008;28;20040;-78
2021/04/21 07:47:08;;;;;;;6.60;3.35;;;16.60;54.80;;;;;;6191610;28;20022;-78
2021/04/21 07:50:09;;;;;;;9.30;3.20;;;16.70;54.80;;;;;;6201784;28;20453;-77
2021/04/21 07:53:14;;;;;;;9.27;2.42;;;16.80;54.60;;;;;;6191658;28;20122;-79
2021/04/21 07:56:15;;;;;;;3.85;1.90;;;16.90;54.00;;;;;;6191104;28;20053;-78
2021/04/21 07:59:20;;;;;;;3.97;2.30;;;17.10;53.10;;;;;;6207534;28;20026;-78
2021/04/21 08:02:22;;;;;;;4.47;2.55;;;17.10;52.90;;;;;;6196660;28;20362;-78
2021/04/21 08:05:23;;;;;;;8.38;2.90;;;17.20;52.00;;;;;;6189395;28;20102;-78
2021/04/21 08:08:34;;;;;;;3.42;2.25;;;17.40;51.50;;;;;;6193925;28;20044;-77
2021/04/21 08:11:35;;;;;;;8.27;3.25;;;17.50;51.20;;;;;;6172754;28;20034;-78
2021/04/21 08:14:45;;;;;;;7.18;2.63;;;17.60;50.80;;;;;;6174754;28;20365;-79
2021/04/21 08:17:58;;;;;;;6.15;3.20;;;17.70;50.70;;;;;;6195861;28;20343;-78
2021/04/21 08:20:59;;;;;;;12.13;3.22;;;17.70;50.50;;;;;;6189190;28;20035;-79
2021/04/21 08:24:07;;;;;;;5.95;3.03;;;17.80;50.40;;;;;;6188603;28;20110;-78
2021/04/21 08:27:11;;;;;;;6.43;2.63;;;17.90;50.40;;;;;;6172625;28;20500;-79
2021/04/21 08:30:13;;;;;;;6.55;2.42;;;18.00;50.20;;;;;;6187888;28;20488;-78
2021/04/21 08:33:14;;;;;;;10.60;2.05;;;18.10;49.70;;;;;;6221742;28;20022;-78
2021/04/21 08:36:15;;;;;;;3.60;2.10;;;18.20;49.30;;;;;;6211681;28;20100;-78
2021/04/21 08:39:16;;;;;;;8.57;2.83;;;18.30;48.70;;;;;;6211875;28;20038;-78
2021/04/21 08:42:21;;;;;;;4.03;2.40;;;18.40;48.50;;;;;;6228678;28;20029;-78
2021/04/21 08:45:22;;;;;;;6.35;2.15;;;18.50;48.30;;;;;;6186519;28;20026;-78
2021/04/21 08:48:24;;;;;;;4.32;2.55;;;18.60;48.00;;;;;;6187960;28;20461;-78
2021/04/21 08:51:26;;;;;;;4.38;2.80;;;18.80;47.70;;;;;;6171532;28;20034;-80
2021/04/21 08:54:31;;;;;;;9.73;2.85;;;18.80;47.30;;;;;;6187965;28;20079;-79
2021/04/21 08:57:32;;;;;;;13.48;5.25;;;18.90;47.20;;;;;;6189566;28;20061;-79
2021/04/21 09:00:33;;;;;;;32.65;7.15;;;18.90;47.10;;;;;;6194703;28;20484;-78
2021/04/21 09:03:36;;;;;;;14.30;6.28;;;18.90;47.00;;;;;;6210973;28;20026;-79
2021/04/21 09:06:40;;;;;;;8.30;3.67;;;18.90;46.80;;;;;;6210796;28;20108;-78
2021/04/21 09:09:42;;;;;;;6.15;3.20;;;19.00;46.90;;;;;;6228017;28;20040;-79
2021/04/21 09:12:43;;;;;;;6.25;3.65;;;19.00;46.40;;;;;;6209227;28;20026;-78
2021/04/21 09:15:44;;;;;;;6.88;3.50;;;19.10;46.20;;;;;;6188608;28;20030;-78
2021/04/21 09:18:46;;;;;;;9.20;3.40;;;19.10;46.00;;;;;;6196678;28;20045;-79
2021/04/21 09:21:47;;;;;;;7.32;3.63;;;19.10;46.10;;;;;;6187272;28;20397;-79
2021/04/21 09:24:55;;;;;;;3.90;2.42;;;19.10;46.20;;;;;;6187472;28;20164;-77
2021/04/21 09:27:56;;;;;;;;;;;19.20;46.10;;;;;;6187663;28;20029;-77
2021/04/21 09:30:58;;;;;;;14.07;7.78;;;19.40;45.90;;;;;;6202023;28;19929;-77
2021/04/21 09:34:16;;;;;;;6.15;3.75;;;19.50;45.40;;;;;;6204013;28;20464;-79
2021/04/21 09:37:26;;;;;;;3.50;2.83;;;19.60;45.20;;;;;;6223465;28;20113;-79
2021/04/21 09:40:34;;;;;;;10.05;4.40;;;19.60;44.80;;;;;;6221583;28;20342;-79
2021/04/21 09:43:36;;;;;;;7.80;4.55;;;19.60;44.00;;;;;;6227600;28;20029;-80
2021/04/21 09:46:42;;;;;;;5.47;3.53;;;19.70;44.00;;;;;;6206478;28;20446;-79
2021/04/21 09:49:44;;;;;;;13.55;2.67;;;19.90;43.70;;;;;;6203332;28;20030;-78
2021/04/21 09:52:45;;;;;;;7.63;2.35;;;20.20;43.10;;;;;;6219342;28;20326;-78
2021/04/21 09:56:05;;;;;;;5.13;2.72;;;20.40;42.00;;;;;;6201781;28;20041;-78
2021/04/21 09:59:07;;;;;;;6.95;3.28;;;20.60;41.00;;;;;;6216554;28;20440;-79
2021/04/21 10:02:30;;;;;;;2.65;2.05;;;20.90;40.70;;;;;;6202327;28;20558;-78
2021/04/21 10:05:35;;;;;;;3.22;2.25;;;21.20;40.30;;;;;;6192531;28;20469;-79
2021/04/21 10:08:36;;;;;;;8.38;3.97;;;21.40;39.40;;;;;;6209256;28;20037;-79
2021/04/21 10:11:37;;;;;;;5.35;2.08;;;21.50;38.80;;;;;;6225822;28;20037;-79
2021/04/21 10:14:38;;;;;;;5.75;1.85;;;21.70;38.70;;;;;;6225663;28;20029;-79
2021/04/21 10:17:41;;;;;;;5.32;2.17;;;21.90;38.10;;;;;;6225310;28;20038;-78
2021/04/21 10:20:44;;;;;;;4.10;3.00;;;21.90;37.80;;;;;;6225665;28;20052;-78
2021/04/21 10:23:48;;;;;;;3.22;2.33;;;21.90;37.60;;;;;;6226575;28;20065;-77
2021/04/21 10:26:49;;;;;;;12.25;6.45;;;21.80;37.40;;;;;;6211672;28;20040;-78
2021/04/21 10:29:50;;;;;;;12.05;5.38;;;21.70;37.70;;;;;;6197965;28;20073;-78
2021/04/21 10:32:52;;;;;;;4.65;2.45;;;21.60;37.90;;;;;;6207244;28;20046;-79
2021/04/21 10:35:54;;;;;;;4.80;2.10;;;21.60;37.70;;;;;;6185039;28;20121;-78
2021/04/21 10:38:54;;;;;;;4.72;2.97;;;21.60;37.90;;;;;;6201468;28;20120;-78
2021/04/21 10:42:07;;;;;;;4.30;2.10;;;21.60;37.70;;;;;;6201250;28;20034;-78
2021/04/21 10:45:21;;;;;;;3.13;2.20;;;21.70;37.70;;;;;;6217640;28;20112;-78
2021/04/21 10:48:45;;;;;;;5.63;2.17;;;21.70;37.30;;;;;;6202828;28;20093;-78
2021/04/21 10:51:47;;;;;;;5.25;2.10;;;21.70;37.30;;;;;;6201256;28;20172;-78
2021/04/21 10:54:51;;;;;;;2.92;1.80;;;21.70;37.40;;;;;;6218292;28;20030;-79
2021/04/21 10:58:01;;;;;;;6.03;2.00;;;21.70;37.50;;;;;;6200455;28;20030;-78
2021/04/21 11:01:29;;;;;;;5.80;2.03;;;21.70;37.50;;;;;;6201171;28;20093;-77
2021/04/21 11:05:03;;;;;;;4.05;2.13;;;21.80;37.20;;;;;;6216474;28;20115;-79
2021/04/21 11:08:10;;;;;;;2.55;1.77;;;21.90;37.00;;;;;;6208102;28;20033;-79
2021/04/21 11:11:14;;;;;;;9.25;2.55;;;22.00;36.70;;;;;;6224414;28;20449;-77
2021/04/21 11:14:35;;;;;;;4.30;2.53;;;22.10;36.50;;;;;;6215788;28;20034;-78
2021/04/21 11:21:15;;;;;;;4.38;2.20;;;22.10;36.30;;;;;;6224413;28;20033;-78
2021/04/21 11:24:20;;;;;;;4.88;1.90;;;22.10;36.20;;;;;;6207707;28;20033;-78
2021/04/21 11:27:41;;;;;;;6.60;2.38;;;22.20;36.00;;;;;;6224070;28;20510;-78
2021/04/21 11:30:48;;;;;;;9.13;2.30;;;22.30;36.00;;;;;;6224448;28;20373;-78
2021/04/21 11:33:53;;;;;;;6.20;1.90;;;22.40;35.90;;;;;;6207463;28;20038;-78
2021/04/21 11:37:12;;;;;;;4.50;2.17;;;22.50;35.40;;;;;;6191660;28;20057;-79
2021/04/21 11:40:27;;;;;;;6.15;2.35;;;22.50;35.10;;;;;;6207735;28;20361;-80
2021/04/21 11:43:39;;;;;;;9.88;5.60;;;22.50;34.90;;;;;;6207659;28;20455;-78
2021/04/21 11:47:02;;;;;;;3.20;2.35;;;22.50;34.60;;;;;;6206720;28;20137;-78
2021/04/21 11:50:18;;;;;;;4.25;1.88;;;22.50;34.60;;;;;;6206670;28;20108;-80
2021/04/21 11:53:24;;;;;;;4.10;2.38;;;22.50;34.50;;;;;;6180585;28;20030;-79
2021/04/21 11:56:35;;;;;;;3.17;1.77;;;22.50;34.30;;;;;;6200954;28;20121;-79
2021/04/21 11:59:36;;;;;;;2.58;1.90;;;22.40;34.10;;;;;;6183509;28;20045;-78
2021/04/21 12:02:37;;;;;;;4.28;1.77;;;22.40;34.30;;;;;;6172452;28;20036;-78
2021/04/21 12:05:38;;;;;;;7.00;1.77;;;22.60;34.00;;;;;;6201723;28;20060;-79
2021/04/21 12:08:50;;;;;;;2.00;1.60;;;22.80;33.70;;;;;;6173241;28;20038;-78
2021/04/21 12:11:58;;;;;;;4.57;2.28;;;22.90;33.00;;;;;;6224435;28;20421;-79
2021/04/21 12:15:08;;;;;;;6.88;2.60;;;23.00;32.80;;;;;;6190872;28;20451;-79
2021/04/21 12:18:09;;;;;;;7.07;2.55;;;22.90;32.50;;;;;;6185772;28;20061;-78
2021/04/21 12:21:16;;;;;;;4.65;1.40;;;23.00;32.40;;;;;;6183834;28;20038;-78
2021/04/21 12:24:21;;;;;;;8.43;1.95;;;23.10;32.20;;;;;;6190168;28;20034;-79
2021/04/21 12:27:29;;;;;;;3.65;1.50;;;23.40;31.80;;;;;;6184118;28;20038;-78
2021/04/21 12:30:32;;;;;;;4.15;1.85;;;23.60;31.40;;;;;;6178980;28;20056;-78
2021/04/21 12:33:34;;;;;;;5.05;2.58;;;23.80;31.20;;;;;;6183860;28;20038;-79
2021/04/21 12:36:37;;;;;;;3.42;2.00;;;23.90;31.20;;;;;;6218276;28;20038;-79
2021/04/21 12:39:43;;;;;;;1.67;1.08;;;23.80;31.20;;;;;;6206997;28;20080;-78
2021/04/21 12:42:44;;;;;;;2.42;1.35;;;23.80;31.20;;;;;;6220691;28;20408;-78
2021/04/21 12:45:45;;;;;;;2.08;1.40;;;23.80;31.00;;;;;;6220031;28;20022;-79
2021/04/21 12:48:53;;;;;;;7.32;1.98;;;23.70;30.70;;;;;;6223257;28;20030;-78
2021/04/21 12:51:58;;;;;;;3.20;1.48;;;23.60;31.00;;;;;;6210354;28;20030;-79
2021/04/21 12:55:00;;;;;;;4.65;1.40;;;23.50;31.10;;;;;;6227269;28;20038;-79
2021/04/21 12:58:01;;;;;;;5.95;2.30;;;23.60;30.90;;;;;;6221602;28;20419;-79
2021/04/21 13:01:09;;;;;;;2.28;1.40;;;23.60;30.60;;;;;;6204819;28;20026;-80
2021/04/21 13:04:16;;;;;;;1.85;1.38;;;23.80;30.30;;;;;;6205157;28;20465;-79
2021/04/21 13:07:22;;;;;;;4.80;1.80;;;24.00;30.00;;;;;;6188150;28;20041;-78
2021/04/21 13:10:23;;;;;;;1.70;1.27;;;24.20;29.70;;;;;;6187916;28;20099;-79
2021/04/21 13:13:48;;;;;;;5.32;1.20;;;24.50;29.40;;;;;;6205441;28;20493;-78
2021/04/21 13:16:52;;;;;;;5.13;1.58;;;24.80;29.00;;;;;;6227204;28;20033;-78
2021/04/21 13:19:56;;;;;;;3.78;1.75;;;24.90;28.80;;;;;;6222313;28;20034;-78
2021/04/21 13:23:20;;;;;;;5.45;1.50;;;24.90;28.80;;;;;;6203714;28;20026;-78
2021/04/21 13:26:23;;;;;;;2.35;1.50;;;24.70;28.70;;;;;;6187388;28;20069;-81
2021/04/21 13:29:34;;;;;;;4.65;2.10;;;24.50;28.70;;;;;;6210827;28;20042;-79
2021/04/21 13:32:39;;;;;;;1.42;1.15;;;24.20;28.90;;;;;;6187231;28;20031;-80
2021/04/21 13:35:40;;;;;;;3.28;1.23;;;24.00;29.20;;;;;;6170989;28;20089;-78
2021/04/21 13:38:43;;;;;;;1.50;1.20;;;23.80;29.40;;;;;;6227751;28;20091;-79
2021/04/21 13:41:44;;;;;;;2.00;1.30;;;23.70;29.40;;;;;;6178613;28;20038;-79
2021/04/21 13:44:45;;;;;;;4.05;1.40;;;23.60;29.40;;;;;;6182499;28;20048;-79
2021/04/21 13:47:48;;;;;;;2.88;1.30;;;23.50;29.50;;;;;;6210163;28;20340;-78
2021/04/21 13:50:50;;;;;;;1.95;1.33;;;23.40;29.40;;;;;;6210051;28;20030;-78
2021/04/21 13:53:53;;;;;;;6.20;1.63;;;23.30;29.30;;;;;;6197300;28;20069;-78
2021/04/21 13:56:54;;;;;;;2.97;1.80;;;23.10;29.30;;;;;;6197699;28;20026;-79
2021/04/21 13:59:55;;;;;;;1.42;1.15;;;23.10;29.50;;;;;;6170528;28;20381;-78
2021/04/21 14:02:56;;;;;;;4.15;1.88;;;22.90;29.30;;;;;;6193148;28;20033;-78
2021/04/21 14:05:57;;;;;;;8.13;1.67;;;22.80;29.40;;;;;;6193782;28;20038;-79
2021/04/21 14:08:58;;;;;;;8.18;1.38;;;22.90;29.40;;;;;;6179622;28;20030;-79
2021/04/21 14:11:59;;;;;;;4.93;2.00;;;23.40;29.10;;;;;;6190567;28;21390;-80
2021/04/21 14:15:01;;;;;;;9.73;2.35;;;23.80;28.70;;;;;;6202975;28;20133;-79
2021/04/21 14:18:02;;;;;;;5.50;1.60;;;24.10;28.30;;;;;;6181682;28;20030;-79
2021/04/21 14:21:03;;;;;;;3.95;2.08;;;24.40;28.10;;;;;;6192921;28;20057;-77
2021/04/21 14:24:06;;;;;;;5.57;2.45;;;24.70;27.90;;;;;;6173282;28;20358;-78
2021/04/21 14:27:08;;;;;;;2.58;1.60;;;24.80;27.50;;;;;;6204067;28;20031;-78
2021/04/21 14:30:11;;;;;;;3.30;2.03;;;24.90;27.30;;;;;;6178149;28;20050;-78
2021/04/21 14:33:13;;;;;;;1.65;1.30;;;25.00;27.30;;;;;;6201613;28;20030;-78
2021/04/21 14:36:14;;;;;;;1.88;1.30;;;25.20;27.00;;;;;;6202099;28;20045;-79
2021/04/21 14:39:15;;;;;;;5.90;1.55;;;25.40;26.80;;;;;;6207147;28;20026;-79
2021/04/21 14:42:16;;;;;;;2.88;1.25;;;25.50;26.70;;;;;;6224974;28;20144;-79
2021/04/21 14:45:18;;;;;;;2.38;1.30;;;25.60;26.70;;;;;;6224452;28;20030;-80
2021/04/21 14:48:31;;;;;;;3.30;1.38;;;25.50;26.40;;;;;;6224782;28;20026;-78
2021/04/21 14:51:32;;;;;;;1.98;1.40;;;25.40;26.40;;;;;;6225099;28;20026;-78
2021/04/21 14:54:34;;;;;;;3.17;1.45;;;25.20;26.30;;;;;;6225593;28;20363;-79
2021/04/21 14:57:35;;;;;;;2.10;1.38;;;25.10;26.50;;;;;;6225178;28;20038;-79
2021/04/21 15:00:36;;;;;;;1.65;1.38;;;24.90;26.50;;;;;;6212007;28;20468;-79
2021/04/21 15:03:37;;;;;;;2.60;1.80;;;24.70;26.30;;;;;;6224478;28;20038;-80
2021/04/21 15:06:46;;;;;;;3.35;1.60;;;24.30;26.60;;;;;;6202882;28;20030;-78
2021/04/21 15:09:47;;;;;;;4.80;1.45;;;24.10;27.00;;;;;;6216792;28;20121;-80
2021/04/21 15:12:54;;;;;;;2.08;1.40;;;23.80;27.20;;;;;;6203838;28;20110;-78
2021/04/21 15:15:55;;;;;;;1.48;1.38;;;23.60;27.40;;;;;;6225192;28;20436;-78
2021/04/21 15:18:56;;;;;;;1.88;1.50;;;23.50;27.50;;;;;;6210911;28;20469;-79
2021/04/21 15:21:59;;;;;;;4.07;1.55;;;23.30;27.70;;;;;;6225837;28;20053;-78
2021/04/21 15:25:03;;;;;;;3.42;1.23;;;23.10;27.70;;;;;;6208882;28;20030;-78
2021/04/21 15:28:04;;;;;;;2.40;1.50;;;23.00;27.90;;;;;;6225247;28;20092;-78
2021/04/21 15:31:05;;;;;;;2.03;1.63;;;22.80;28.00;;;;;;6207542;28;20110;-78
2021/04/21 15:34:07;;;;;;;6.55;1.50;;;22.70;28.30;;;;;;6186098;28;20033;-78
2021/04/21 15:37:08;;;;;;;4.20;1.92;;;22.60;28.90;;;;;;6184747;28;20041;-78
2021/04/21 15:40:13;;;;;;;3.05;2.10;;;22.50;29.60;;;;;;6169025;28;20148;-79
2021/04/21 15:43:15;;;;;;;3.95;1.83;;;22.40;30.00;;;;;;6168605;28;20053;-78
2021/04/21 15:46:16;;;;;;;3.83;1.70;;;22.30;30.10;;;;;;6184362;28;20026;-80
2021/04/21 15:49:20;;;;;;;6.50;1.80;;;22.30;30.30;;;;;;6215913;28;20456;-78
2021/04/21 15:52:22;;;;;;;4.82;1.73;;;22.30;30.50;;;;;;6225028;28;20105;-78
2021/04/21 15:55:23;;;;;;;2.03;1.80;;;22.20;30.60;;;;;;6188580;28;20023;-78
2021/04/21 15:58:29;;;;;;;10.52;2.10;;;22.00;30.80;;;;;;6207131;28;20049;-80
2021/04/21 16:01:36;;;;;;;4.57;1.70;;;21.90;31.10;;;;;;6208801;28;20040;-79
2021/04/21 16:04:38;;;;;;;3.55;1.83;;;21.90;31.30;;;;;;6213128;28;20026;-79
2021/04/21 16:07:44;;;;;;;3.25;1.90;;;21.80;31.50;;;;;;6198631;28;20038;-79
2021/04/21 16:10:45;;;;;;;2.95;1.73;;;21.60;31.70;;;;;;6194582;28;20071;-79
2021/04/21 16:13:46;;;;;;;2.55;1.90;;;21.50;31.80;;;;;;6185868;28;20030;-80
2021/04/21 16:16:48;;;;;;;4.63;1.70;;;21.40;32.10;;;;;;6190555;28;20037;-77